KBDR/BDR METAR and TAF weather

Enter ICAO airport designator
Station Type Date Time Source
KBDR METAR 2018/10/22 16:52 UTC NOAA

KBDR 221652Z 26008KT 10SM OVC120 10/M01 A3021 RMK AO2 SLP231 T01001006


Station Type Date Time Source
KBDR Decoded METAR 2018/10/22 16:52 UTC NOAA

SIKORSKY MEMORIAL AIRPORT, CT, United States (KBDR) 41-10N 073-08W 7M
Oct 22, 2018 - 12:52 PM EDT / 2018.10.22 1652 UTC
Wind: from the W (260 degrees) at 9 MPH (8 KT):0
Visibility: 10 mile(s):0
Sky conditions: overcast
Temperature: 50.0 F (10.0 C)
Dew Point: 30.9 F (-0.6 C)
Relative Humidity: 47%
Pressure (altimeter): 30.21 in. Hg (1023 hPa)
ob: KBDR 221652Z 26008KT 10SM OVC120 10/M01 A3021 RMK AO2 SLP231 T01001006
cycle: 17

Station Type Date Time Source
KBDR TAF 2018/10/22 18:22 UTC NOAA

TAF KBDR 221720Z 2218/2318 25010KT P6SM FEW050 BKN100
FM222300 22005KT P6SM BKN060
FM230300 VRB03KT P6SM BKN070
FM231500 22010KT P6SM BKN060


Example: see airport list